Time;durP1;ratioP1;P1;durP2;ratioP2;P2;SDS_P1;SDS_P2;PMS_P1;PMS_P2;Temp;Humidity;BMP_temperature;BMP_pressure;BME280_temperature;BME280_humidity;BME280_pressure;Samples;Min_cycle;Max_cycle;Signal;HPM_P1;HPM_P2
2023/03/19 00:01:18;;;;;;;23.15;18.90;;;9.60;99.90;;;;;;5070945;28;20103;-35
2023/03/19 00:03:44;;;;;;;23.35;19.40;;;9.60;99.90;;;;;;5070406;28;20040;-35
2023/03/19 00:06:10;;;;;;;22.90;18.83;;;9.60;99.90;;;;;;5070712;28;20048;-35
2023/03/19 00:08:36;;;;;;;20.95;18.73;;;9.60;99.90;;;;;;5053906;28;20068;-35
2023/03/19 00:11:09;;;;;;;23.02;19.65;;;9.50;99.90;;;;;;5070859;28;20084;-35
2023/03/19 00:13:35;;;;;;;24.00;20.40;;;9.50;99.90;;;;;;5070818;28;20505;-34
2023/03/19 00:16:01;;;;;;;23.25;19.55;;;9.60;99.90;;;;;;5070720;28;20067;-35
2023/03/19 00:18:27;;;;;;;24.85;21.77;;;9.60;99.90;;;;;;5070758;28;20504;-35
2023/03/19 00:20:52;;;;;;;27.67;21.90;;;9.60;99.90;;;;;;5070472;28;20123;-35
2023/03/19 00:23:18;;;;;;;23.38;20.80;;;9.60;99.90;;;;;;5053649;28;20081;-35
2023/03/19 00:25:44;;;;;;;26.25;21.27;;;9.60;99.90;;;;;;5073935;28;20052;-35
2023/03/19 00:28:10;;;;;;;27.15;23.00;;;9.70;99.90;;;;;;5074358;28;20063;-35
2023/03/19 00:30:36;;;;;;;27.75;22.25;;;9.80;99.90;;;;;;5074577;28;20401;-35
2023/03/19 00:33:02;;;;;;;27.73;22.88;;;9.80;99.90;;;;;;5074214;28;20040;-35
2023/03/19 00:35:28;;;;;;;25.77;22.45;;;9.80;99.90;;;;;;5075423;28;20044;-35
2023/03/19 00:37:54;;;;;;;24.90;21.20;;;9.80;99.90;;;;;;5074472;28;20043;-35
2023/03/19 00:40:20;;;;;;;27.40;22.40;;;9.90;99.90;;;;;;5074516;28;20482;-36
2023/03/19 00:42:46;;;;;;;24.67;20.88;;;9.90;99.90;;;;;;5074043;28;20124;-35
2023/03/19 00:45:12;;;;;;;24.58;21.38;;;9.90;99.90;;;;;;5074278;28;20071;-35
2023/03/19 00:47:38;;;;;;;22.27;19.85;;;10.00;99.90;;;;;;5073883;28;20047;-36
2023/03/19 00:50:05;;;;;;;24.17;19.58;;;10.00;99.90;;;;;;5074010;28;20044;-35
2023/03/19 00:52:31;;;;;;;24.33;20.77;;;10.00;99.90;;;;;;5073755;28;20040;-35
2023/03/19 00:54:57;;;;;;;20.58;18.40;;;10.10;99.90;;;;;;5074117;28;20044;-35
2023/03/19 00:57:22;;;;;;;23.33;19.50;;;10.10;99.90;;;;;;5073888;28;20117;-35
2023/03/19 00:59:48;;;;;;;24.77;19.42;;;10.10;99.90;;;;;;5074078;28;20064;-35
2023/03/19 01:02:14;;;;;;;19.20;17.13;;;10.10;99.90;;;;;;5056990;28;20048;-35
2023/03/19 01:04:40;;;;;;;20.38;18.35;;;10.10;99.90;;;;;;5056845;28;20108;-35
2023/03/19 01:07:06;;;;;;;19.77;16.85;;;10.20;99.90;;;;;;5073744;28;20048;-38
2023/03/19 01:09:31;;;;;;;17.02;15.32;;;10.20;99.90;;;;;;5069865;28;20040;-35
2023/03/19 01:12:03;;;;;;;17.63;15.68;;;10.20;99.90;;;;;;5054967;28;20502;-35
2023/03/19 01:14:30;;;;;;;16.58;14.30;;;10.30;99.90;;;;;;5053765;28;20047;-35
2023/03/19 01:16:56;;;;;;;16.98;14.25;;;10.30;99.90;;;;;;5053381;28;20045;-36
2023/03/19 01:19:22;;;;;;;15.98;14.25;;;10.40;99.90;;;;;;5053500;28;20041;-35
2023/03/19 01:21:48;;;;;;;17.27;14.73;;;10.40;99.90;;;;;;5053357;28;20041;-35
2023/03/19 01:24:15;;;;;;;17.80;15.43;;;10.40;99.90;;;;;;5053641;28;20033;-35
2023/03/19 01:26:42;;;;;;;18.77;15.52;;;10.50;99.90;;;;;;5053270;28;20043;-35
2023/03/19 01:29:08;;;;;;;17.52;15.55;;;10.50;99.90;;;;;;5053656;28;20029;-34
2023/03/19 01:31:35;;;;;;;17.33;15.48;;;10.50;99.90;;;;;;5053288;28;20033;-35
2023/03/19 01:34:01;;;;;;;18.30;16.38;;;10.50;99.90;;;;;;5053425;28;20037;-35
2023/03/19 01:36:29;;;;;;;18.42;15.20;;;10.50;99.90;;;;;;5052793;28;20059;-35
2023/03/19 01:38:55;;;;;;;17.60;14.90;;;10.50;99.90;;;;;;5052966;28;20080;-35
2023/03/19 01:41:22;;;;;;;18.23;14.93;;;10.50;99.90;;;;;;5053059;28;20072;-35
2023/03/19 01:43:48;;;;;;;16.65;14.77;;;10.50;99.90;;;;;;5053076;28;20410;-35
2023/03/19 01:46:26;;;;;;;17.02;14.60;;;10.60;99.90;;;;;;5052944;28;20094;-35
2023/03/19 01:48:58;;;;;;;19.33;16.33;;;10.60;99.90;;;;;;5053143;28;20041;-35
2023/03/19 01:51:29;;;;;;;20.48;16.95;;;10.60;99.90;;;;;;5053198;28;20037;-35
2023/03/19 01:54:06;;;;;;;19.45;16.73;;;10.60;99.90;;;;;;5052950;28;20041;-35
2023/03/19 01:56:34;;;;;;;18.02;15.95;;;10.50;99.90;;;;;;5052797;28;20037;-35
2023/03/19 01:59:11;;;;;;;18.58;15.82;;;10.50;99.90;;;;;;5052934;28;20414;-35
2023/03/19 02:02:01;;;;;;;20.08;16.27;;;10.50;99.90;;;;;;5052965;28;20064;-35
2023/03/19 02:04:29;;;;;;;18.17;16.10;;;10.50;99.90;;;;;;5052786;28;20033;-35
2023/03/19 02:06:56;;;;;;;20.67;17.02;;;10.50;99.90;;;;;;5052476;28;20045;-35
2023/03/19 02:09:24;;;;;;;17.95;15.85;;;10.50;99.90;;;;;;5052377;28;20084;-35
2023/03/19 02:11:51;;;;;;;17.80;15.85;;;10.50;99.90;;;;;;5052731;28;20048;-36
2023/03/19 02:14:17;;;;;;;19.67;16.30;;;10.50;99.90;;;;;;5052600;28;20121;-35
2023/03/19 02:16:43;;;;;;;19.83;16.50;;;10.40;99.90;;;;;;5052537;28;20140;-35
2023/03/19 02:19:14;;;;;;;18.98;16.23;;;10.40;99.90;;;;;;5052324;28;20095;-36
2023/03/19 02:21:40;;;;;;;16.90;15.10;;;10.40;99.90;;;;;;5052569;28;20483;-35
2023/03/19 02:24:18;;;;;;;19.45;16.08;;;10.40;99.90;;;;;;5052492;28;20037;-35
2023/03/19 02:26:45;;;;;;;18.65;15.60;;;10.40;99.90;;;;;;5035778;28;20405;-35
2023/03/19 02:29:11;;;;;;;18.23;15.73;;;10.40;99.90;;;;;;5052099;28;20033;-35
2023/03/19 02:31:37;;;;;;;16.98;15.10;;;10.30;99.90;;;;;;5051979;28;20266;-35
2023/03/19 02:34:23;;;;;;;16.83;14.98;;;10.30;99.90;;;;;;5051941;28;20378;-35
2023/03/19 02:37:04;;;;;;;17.25;15.45;;;10.30;99.90;;;;;;5044816;28;20572;-35
2023/03/19 02:39:39;;;;;;;15.65;14.05;;;10.20;99.90;;;;;;5052315;28;20040;-35
2023/03/19 02:42:05;;;;;;;16.27;14.50;;;10.20;99.90;;;;;;5052146;28;20118;-35
2023/03/19 02:44:31;;;;;;;14.38;12.88;;;10.20;99.90;;;;;;5051958;28;20033;-35
2023/03/19 02:46:58;;;;;;;14.25;12.68;;;10.20;99.90;;;;;;5051329;28;20045;-35
2023/03/19 02:49:23;;;;;;;14.27;12.32;;;10.20;99.90;;;;;;5070573;28;20117;-35
2023/03/19 02:51:50;;;;;;;12.95;11.52;;;10.30;99.90;;;;;;5071885;28;20048;-34
2023/03/19 02:54:16;;;;;;;17.70;13.27;;;10.20;99.90;;;;;;5071896;28;20033;-35
2023/03/19 02:56:41;;;;;;;14.90;11.75;;;10.20;99.90;;;;;;5071835;28;20036;-35
2023/03/19 02:59:08;;;;;;;12.73;11.00;;;10.20;99.90;;;;;;5072536;28;20032;-35
2023/03/19 03:01:34;;;;;;;13.20;11.80;;;10.20;99.90;;;;;;5072349;28;20105;-36
2023/03/19 03:03:59;;;;;;;14.10;11.80;;;10.20;99.90;;;;;;5061109;28;20045;-36
2023/03/19 03:06:25;;;;;;;12.98;11.30;;;10.20;99.90;;;;;;5067687;28;20041;-36
2023/03/19 03:08:51;;;;;;;13.40;11.75;;;10.20;99.90;;;;;;5068257;28;20549;-38
2023/03/19 03:11:16;;;;;;;12.68;11.27;;;10.10;99.90;;;;;;5066668;28;20040;-38
2023/03/19 03:13:42;;;;;;;13.43;10.80;;;10.10;99.90;;;;;;5078809;28;20040;-38
2023/03/19 03:16:08;;;;;;;13.20;11.90;;;10.10;99.90;;;;;;5069983;28;20338;-38
2023/03/19 03:18:34;;;;;;;13.25;11.85;;;10.30;99.90;;;;;;5074812;28;20025;-37
2023/03/19 03:21:00;;;;;;;13.23;11.82;;;10.10;99.90;;;;;;5064545;28;20071;-38
2023/03/19 03:23:26;;;;;;;13.32;11.93;;;10.10;99.90;;;;;;5064175;28;20509;-37
2023/03/19 03:25:52;;;;;;;13.32;11.27;;;10.00;99.90;;;;;;5064949;28;20033;-38
2023/03/19 03:28:18;;;;;;;13.13;11.68;;;10.10;99.90;;;;;;5065318;28;20044;-38
2023/03/19 03:30:44;;;;;;;12.30;11.00;;;10.00;99.90;;;;;;5061889;28;20032;-38
2023/03/19 03:33:10;;;;;;;13.73;10.85;;;10.00;99.90;;;;;;5069880;28;20064;-38
2023/03/19 03:35:36;;;;;;;11.77;10.55;;;10.00;99.90;;;;;;5068605;28;20079;-38
2023/03/19 03:38:03;;;;;;;13.48;10.63;;;10.00;99.90;;;;;;5072643;28;20033;-37
2023/03/19 03:40:28;;;;;;;12.68;11.25;;;10.00;99.90;;;;;;5068272;28;20449;-37
2023/03/19 03:42:54;;;;;;;12.52;10.60;;;10.00;99.90;;;;;;5062611;28;20036;-37
2023/03/19 03:45:20;;;;;;;11.57;9.80;;;9.90;99.90;;;;;;5064777;28;20059;-38
2023/03/19 03:47:46;;;;;;;11.10;10.02;;;10.00;99.90;;;;;;5059684;28;20037;-38
2023/03/19 03:50:12;;;;;;;10.43;9.43;;;9.90;99.90;;;;;;5075763;28;20070;-38
2023/03/19 03:52:39;;;;;;;10.75;8.88;;;10.00;99.90;;;;;;5077914;28;20090;-37
2023/03/19 03:55:06;;;;;;;10.13;9.13;;;9.90;99.90;;;;;;5080673;28;20366;-38
2023/03/19 03:57:32;;;;;;;10.32;8.27;;;10.00;99.90;;;;;;5066174;28;20035;-38
2023/03/19 03:59:58;;;;;;;10.48;8.35;;;10.00;99.90;;;;;;5061748;28;20397;-37
2023/03/19 04:02:24;;;;;;;7.90;7.10;;;9.90;99.90;;;;;;5057382;28;20040;-38
2023/03/19 04:04:53;;;;;;;9.48;7.72;;;10.00;99.90;;;;;;5067027;28;20029;-37
2023/03/19 04:07:19;;;;;;;9.10;8.20;;;10.00;99.90;;;;;;5056372;28;20052;-37
2023/03/19 04:09:45;;;;;;;8.80;7.90;;;9.90;99.90;;;;;;5064606;28;20040;-38
2023/03/19 04:12:12;;;;;;;8.13;7.05;;;9.90;99.90;;;;;;5065412;28;20521;-37
2023/03/19 04:14:38;;;;;;;6.60;6.00;;;9.90;99.90;;;;;;5066324;28;20029;-38
2023/03/19 04:17:04;;;;;;;6.85;6.15;;;9.90;99.90;;;;;;5061177;28;20086;-37
2023/03/19 04:19:30;;;;;;;7.30;6.53;;;9.90;99.90;;;;;;5064385;28;20313;-37
2023/03/19 04:21:57;;;;;;;7.20;6.50;;;9.90;99.90;;;;;;5063304;28;20029;-37
2023/03/19 04:24:22;;;;;;;6.50;5.72;;;9.90;99.90;;;;;;5064911;28;20045;-37
2023/03/19 04:26:48;;;;;;;6.82;6.22;;;10.00;99.90;;;;;;5058771;28;20036;-38
2023/03/19 04:29:15;;;;;;;8.07;5.97;;;10.00;99.90;;;;;;5056470;28;20056;-38
2023/03/19 04:31:41;;;;;;;6.53;5.97;;;10.00;99.90;;;;;;5063713;28;20037;-37
2023/03/19 04:34:06;;;;;;;6.75;6.05;;;10.00;99.90;;;;;;5063974;28;20033;-38
2023/03/19 04:36:32;;;;;;;7.65;6.22;;;10.00;99.90;;;;;;5063918;28;20036;-38
2023/03/19 04:38:58;;;;;;;7.03;6.18;;;10.00;99.90;;;;;;5058004;28;20033;-37
2023/03/19 04:41:25;;;;;;;6.30;5.70;;;10.00;99.90;;;;;;5063232;28;20116;-38
2023/03/19 04:43:50;;;;;;;8.93;6.30;;;10.00;99.90;;;;;;5063819;28;20375;-38
2023/03/19 04:46:16;;;;;;;6.18;5.60;;;10.00;99.90;;;;;;5066180;28;20047;-38
2023/03/19 04:48:42;;;;;;;6.75;6.15;;;9.90;99.90;;;;;;5065023;28;20039;-38
2023/03/19 04:51:08;;;;;;;6.68;6.10;;;9.90;99.90;;;;;;5072246;28;20033;-37
2023/03/19 04:53:36;;;;;;;7.18;6.45;;;9.90;99.90;;;;;;5071085;28;20075;-37
2023/03/19 04:56:02;;;;;;;7.13;6.43;;;9.90;99.90;;;;;;5062596;28;20116;-37
2023/03/19 04:58:28;;;;;;;6.63;5.93;;;9.90;99.90;;;;;;5064643;28;20124;-37
2023/03/19 05:00:56;;;;;;;7.22;6.57;;;9.90;99.90;;;;;;5058625;28;20051;-37
2023/03/19 05:03:22;;;;;;;6.28;5.68;;;9.90;99.90;;;;;;5064919;28;20032;-37
2023/03/19 05:05:48;;;;;;;7.07;5.97;;;9.80;99.90;;;;;;5061756;28;20040;-37
2023/03/19 05:08:13;;;;;;;6.28;5.68;;;9.80;99.90;;;;;;5067656;28;20409;-37
2023/03/19 05:10:39;;;;;;;6.28;5.75;;;9.80;99.90;;;;;;5069328;28;20036;-37
2023/03/19 05:13:06;;;;;;;8.80;6.70;;;9.70;99.90;;;;;;5069133;28;20048;-38
2023/03/19 05:15:32;;;;;;;8.48;6.10;;;9.70;99.90;;;;;;5069962;28;20051;-37
2023/03/19 05:17:58;;;;;;;6.53;5.93;;;9.60;99.90;;;;;;5067378;28;20408;-37
2023/03/19 05:20:24;;;;;;;6.43;5.75;;;9.60;99.90;;;;;;5076265;28;20032;-37
2023/03/19 05:22:51;;;;;;;6.63;6.03;;;9.60;99.90;;;;;;5072779;28;20174;-37
2023/03/19 05:25:18;;;;;;;7.00;6.30;;;9.50;99.90;;;;;;5066709;28;20502;-37
2023/03/19 05:27:44;;;;;;;6.85;6.25;;;9.50;99.90;;;;;;5071794;28;20489;-37
2023/03/19 05:30:11;;;;;;;7.20;6.50;;;9.40;99.90;;;;;;5076229;28;20093;-37
2023/03/19 05:32:37;;;;;;;7.78;6.32;;;9.40;99.90;;;;;;5070041;28;20040;-37
2023/03/19 05:35:03;;;;;;;7.97;6.72;;;9.40;99.90;;;;;;5074225;28;20525;-37
2023/03/19 05:37:29;;;;;;;7.13;6.35;;;9.40;99.90;;;;;;5071415;28;20050;-37
2023/03/19 05:39:54;;;;;;;7.07;6.40;;;9.40;99.90;;;;;;5064900;28;20178;-37
2023/03/19 05:42:20;;;;;;;7.90;7.10;;;9.30;99.90;;;;;;5067425;28;20067;-37
2023/03/19 05:44:47;;;;;;;7.53;6.60;;;9.30;99.90;;;;;;5070272;28;20490;-37
2023/03/19 05:47:12;;;;;;;9.65;7.57;;;9.30;99.90;;;;;;5067057;28;20040;-37
2023/03/19 05:49:38;;;;;;;8.30;7.50;;;9.30;99.90;;;;;;5072695;28;20120;-37
2023/03/19 05:52:04;;;;;;;7.45;6.60;;;9.20;99.90;;;;;;5071167;28;20037;-37
2023/03/19 05:54:30;;;;;;;7.05;6.00;;;9.20;99.90;;;;;;5071530;28;20033;-37
2023/03/19 05:56:55;;;;;;;7.68;6.85;;;9.20;99.90;;;;;;5073308;28;20508;-37
2023/03/19 05:59:21;;;;;;;8.48;7.30;;;9.20;99.90;;;;;;5078704;28;20490;-37
2023/03/19 06:01:47;;;;;;;9.02;7.57;;;9.20;99.90;;;;;;5064742;28;20542;-37
2023/03/19 06:04:13;;;;;;;7.65;6.85;;;9.20;99.90;;;;;;5057236;28;20117;-37
2023/03/19 06:06:39;;;;;;;7.40;6.70;;;9.20;99.90;;;;;;5062504;28;20069;-37
2023/03/19 06:09:04;;;;;;;8.43;7.50;;;9.30;99.90;;;;;;5061266;28;20032;-37
2023/03/19 06:11:31;;;;;;;9.40;7.90;;;9.20;99.90;;;;;;5067591;28;20032;-37
2023/03/19 06:13:56;;;;;;;8.05;7.25;;;9.30;99.90;;;;;;5063375;28;20122;-37
2023/03/19 06:16:22;;;;;;;7.10;6.40;;;9.20;99.90;;;;;;5068446;28;20056;-37
2023/03/19 06:18:48;;;;;;;7.68;6.75;;;9.30;99.90;;;;;;5063186;28;20029;-37
2023/03/19 06:21:14;;;;;;;8.63;7.72;;;9.30;99.90;;;;;;5065001;28;20028;-37
2023/03/19 06:23:39;;;;;;;7.88;7.18;;;9.30;99.90;;;;;;5070154;28;20398;-37
2023/03/19 06:26:05;;;;;;;7.70;6.90;;;9.20;99.90;;;;;;5068836;28;20032;-37
2023/03/19 06:28:31;;;;;;;7.80;7.10;;;9.30;99.90;;;;;;5062330;28;20101;-37
2023/03/19 06:30:57;;;;;;;8.10;7.30;;;9.30;99.90;;;;;;5070066;28;20435;-37
2023/03/19 06:33:26;;;;;;;8.48;7.50;;;9.30;99.90;;;;;;5069016;28;20041;-37
2023/03/19 06:35:52;;;;;;;8.95;7.90;;;9.40;99.90;;;;;;5069415;28;20033;-38
2023/03/19 06:38:18;;;;;;;7.43;6.72;;;9.40;99.90;;;;;;5064661;28;20059;-37
2023/03/19 06:40:44;;;;;;;7.88;7.13;;;9.50;99.90;;;;;;5064661;28;20032;-37
2023/03/19 06:43:09;;;;;;;8.23;7.43;;;9.50;99.90;;;;;;5069277;28;20072;-37
2023/03/19 06:45:35;;;;;;;8.45;7.57;;;9.60;99.90;;;;;;5061807;28;20044;-37
2023/03/19 06:48:01;;;;;;;9.48;7.53;;;9.60;99.90;;;;;;5063259;28;20119;-37
2023/03/19 06:50:27;;;;;;;8.68;7.88;;;9.60;99.90;;;;;;5057250;28;20498;-37
2023/03/19 06:52:52;;;;;;;8.48;7.38;;;9.70;99.90;;;;;;5059461;28;20056;-37
2023/03/19 06:55:19;;;;;;;10.45;8.05;;;9.70;99.90;;;;;;5065657;28;20140;-37
2023/03/19 06:57:52;;;;;;;9.68;8.23;;;9.70;99.90;;;;;;5045215;28;20718;-37
2023/03/19 07:00:18;;;;;;;8.68;7.78;;;9.80;99.90;;;;;;5066716;28;20493;-37
2023/03/19 07:02:44;;;;;;;9.30;8.35;;;9.70;99.90;;;;;;5054936;28;20116;-37
2023/03/19 07:05:10;;;;;;;11.20;8.38;;;9.80;99.90;;;;;;5070935;28;20123;-37
2023/03/19 07:07:36;;;;;;;8.00;7.20;;;9.80;99.90;;;;;;5059284;28;20398;-37
2023/03/19 07:10:02;;;;;;;10.43;9.43;;;9.70;99.90;;;;;;5058044;28;20040;-37
2023/03/19 07:12:28;;;;;;;10.77;9.73;;;9.70;99.90;;;;;;5052932;28;20051;-37
2023/03/19 07:14:57;;;;;;;10.05;9.13;;;9.70;99.90;;;;;;5059190;28;20562;-37
2023/03/19 07:17:23;;;;;;;11.20;9.15;;;9.80;99.90;;;;;;5066977;28;20132;-37
2023/03/19 07:19:49;;;;;;;10.02;9.02;;;9.80;99.90;;;;;;5063687;28;20490;-37
2023/03/19 07:22:15;;;;;;;15.73;9.40;;;10.00;99.90;;;;;;5064256;28;20036;-37
2023/03/19 07:24:41;;;;;;;10.70;9.60;;;10.10;99.90;;;;;;5060441;28;20566;-37
2023/03/19 07:27:07;;;;;;;14.43;10.38;;;10.20;99.90;;;;;;5057298;28;20032;-37
2023/03/19 07:29:33;;;;;;;11.15;9.88;;;10.30;99.90;;;;;;5053825;28;20080;-37
2023/03/19 07:31:58;;;;;;;10.13;8.80;;;10.40;99.90;;;;;;5065859;28;20397;-37
2023/03/19 07:34:25;;;;;;;11.45;10.27;;;10.50;99.90;;;;;;5074097;28;20035;-37
2023/03/19 07:36:51;;;;;;;11.02;9.93;;;10.50;99.90;;;;;;5064220;28;20039;-37
2023/03/19 07:39:18;;;;;;;10.90;9.57;;;10.60;99.90;;;;;;5067847;28;20371;-37
2023/03/19 07:41:46;;;;;;;11.70;10.50;;;10.60;99.90;;;;;;5080277;28;20036;-37
2023/03/19 07:44:12;;;;;;;12.10;10.82;;;10.70;99.90;;;;;;5073350;28;20073;-38
2023/03/19 07:46:37;;;;;;;13.15;11.40;;;10.80;99.90;;;;;;5072829;28;20032;-37
2023/03/19 07:49:03;;;;;;;13.60;11.25;;;10.80;99.90;;;;;;5070308;28;20036;-37
2023/03/19 07:51:29;;;;;;;14.25;11.88;;;10.90;99.90;;;;;;5062266;28;20033;-37
2023/03/19 07:54:00;;;;;;;13.23;11.13;;;10.90;99.90;;;;;;5066442;28;20103;-34
2023/03/19 07:56:26;;;;;;;14.55;11.55;;;10.90;99.90;;;;;;5053720;28;20076;-36
2023/03/19 07:58:52;;;;;;;13.00;10.75;;;11.00;99.90;;;;;;5060856;28;20150;-36
2023/03/19 08:01:18;;;;;;;14.40;10.73;;;11.00;99.90;;;;;;5067870;28;20530;-36
2023/03/19 08:03:44;;;;;;;13.40;12.00;;;11.10;99.90;;;;;;5075580;28;20048;-36
2023/03/19 08:06:10;;;;;;;15.65;11.80;;;11.20;99.90;;;;;;5070041;28;20097;-35
2023/03/19 08:08:36;;;;;;;14.15;12.00;;;11.30;99.90;;;;;;5050640;28;20080;-36
2023/03/19 08:11:03;;;;;;;16.08;13.07;;;11.30;99.90;;;;;;5052127;28;20033;-35
2023/03/19 08:13:28;;;;;;;16.20;12.93;;;11.30;99.90;;;;;;5080354;28;20040;-35
2023/03/19 08:15:55;;;;;;;15.88;12.80;;;11.40;99.90;;;;;;5064844;28;20075;-35
2023/03/19 08:18:21;;;;;;;15.70;12.40;;;11.40;99.90;;;;;;5061901;28;20040;-35
2023/03/19 08:20:48;;;;;;;16.33;12.60;;;11.40;99.90;;;;;;5070480;28;20078;-35
2023/03/19 08:23:14;;;;;;;16.83;13.00;;;11.50;99.90;;;;;;5067714;28;20135;-35
2023/03/19 08:25:40;;;;;;;17.30;13.82;;;11.60;99.90;;;;;;5059337;28;20037;-35
2023/03/19 08:28:08;;;;;;;15.60;12.27;;;11.60;99.90;;;;;;5070752;28;20040;-36
2023/03/19 08:30:35;;;;;;;15.63;13.02;;;11.60;99.90;;;;;;5066560;28;20367;-34
2023/03/19 08:33:01;;;;;;;15.90;12.07;;;11.60;99.90;;;;;;5080104;28;20048;-35
2023/03/19 08:35:27;;;;;;;16.70;13.48;;;11.70;99.90;;;;;;5070135;28;20036;-35
2023/03/19 08:37:54;;;;;;;15.85;12.48;;;11.60;99.90;;;;;;5081308;28;20035;-36
2023/03/19 08:40:19;;;;;;;14.73;12.30;;;11.80;99.90;;;;;;5090298;28;20036;-36
2023/03/19 08:42:45;;;;;;;13.85;11.45;;;12.00;99.90;;;;;;5070337;28;20132;-35
2023/03/19 08:45:13;;;;;;;15.45;11.98;;;12.50;99.90;;;;;;5071529;28;20048;-36
2023/03/19 08:47:40;;;;;;;17.27;13.35;;;13.00;99.90;;;;;;5073967;28;20043;-35
2023/03/19 08:50:06;;;;;;;14.38;11.68;;;13.30;99.90;;;;;;5073901;28;20040;-35
2023/03/19 08:52:32;;;;;;;15.82;12.38;;;13.70;99.90;;;;;;5073182;28;20409;-36
2023/03/19 08:54:58;;;;;;;14.15;11.90;;;14.20;99.90;;;;;;5084636;28;20032;-36
2023/03/19 08:57:24;;;;;;;13.55;11.77;;;14.40;99.90;;;;;;5074047;28;20102;-36
2023/03/19 08:59:51;;;;;;;13.27;11.88;;;14.30;99.90;;;;;;5065527;28;20486;-35
2023/03/19 09:02:17;;;;;;;11.85;10.65;;;14.10;99.90;;;;;;5066897;28;20079;-36
2023/03/19 09:04:43;;;;;;;12.52;11.20;;;14.30;99.90;;;;;;5059830;28;20513;-36
2023/03/19 09:07:12;;;;;;;13.07;11.52;;;14.40;99.90;;;;;;5073600;28;20044;-35
2023/03/19 09:09:39;;;;;;;13.70;11.05;;;14.20;99.90;;;;;;5078474;28;20099;-36
2023/03/19 09:12:06;;;;;;;12.30;10.45;;;14.40;99.90;;;;;;5063398;28;20545;-36
2023/03/19 09:14:35;;;;;;;11.77;10.30;;;14.40;99.90;;;;;;5073781;28;20466;-36
2023/03/19 09:17:02;;;;;;;11.95;10.00;;;14.20;99.90;;;;;;5053820;28;20033;-36
2023/03/19 09:19:28;;;;;;;11.40;10.15;;;14.10;99.90;;;;;;5059757;28;20032;-36
2023/03/19 09:21:54;;;;;;;10.77;9.68;;;13.80;99.90;;;;;;5077775;28;20510;-36
2023/03/19 09:24:20;;;;;;;11.18;9.05;;;13.60;99.90;;;;;;5073514;28;20036;-36
2023/03/19 09:26:46;;;;;;;11.93;9.25;;;13.40;99.90;;;;;;5073743;28;20543;-36
2023/03/19 09:29:12;;;;;;;11.75;10.18;;;13.30;99.90;;;;;;5073335;28;20076;-36
2023/03/19 09:31:38;;;;;;;10.88;9.15;;;13.10;99.90;;;;;;5060711;28;20048;-36
2023/03/19 09:34:05;;;;;;;10.18;8.98;;;13.20;99.90;;;;;;5058042;28;20036;-35
2023/03/19 09:36:31;;;;;;;10.38;9.27;;;13.30;99.90;;;;;;5081717;28;20469;-36
2023/03/19 09:38:57;;;;;;;11.15;9.95;;;13.50;99.90;;;;;;5066108;28;20037;-37
2023/03/19 09:41:45;;;;;;;10.20;9.07;;;13.80;99.90;;;;;;5072241;28;20044;-36
2023/03/19 09:44:25;;;;;;;10.85;9.57;;;13.90;99.90;;;;;;5069941;28;20414;-36
2023/03/19 09:47:22;;;;;;;9.68;8.73;;;14.60;99.90;;;;;;5073094;28;20059;-36
2023/03/19 09:49:50;;;;;;;10.35;9.20;;;15.10;99.90;;;;;;5061468;28;20043;-36
2023/03/19 09:52:33;;;;;;;10.27;9.27;;;15.10;99.90;;;;;;5072674;28;20496;-36
2023/03/19 09:55:09;;;;;;;11.55;9.20;;;14.90;99.90;;;;;;5063529;28;20036;-35
2023/03/19 09:57:37;;;;;;;9.80;8.57;;;14.70;99.90;;;;;;5054932;28;20039;-35
2023/03/19 10:00:18;;;;;;;10.38;9.35;;;14.30;99.90;;;;;;5084589;28;20046;-36
2023/03/19 10:02:44;;;;;;;9.43;8.38;;;14.10;99.90;;;;;;5073591;28;20044;-36
2023/03/19 10:05:52;;;;;;;9.60;8.13;;;13.90;99.90;;;;;;5072510;28;20098;-36
2023/03/19 10:08:50;;;;;;;10.45;9.32;;;13.80;99.90;;;;;;5065880;28;20128;-36
2023/03/19 10:11:35;;;;;;;11.35;9.52;;;13.80;99.90;;;;;;5067224;28;20028;-35
2023/03/19 10:14:03;;;;;;;11.20;10.00;;;13.70;99.90;;;;;;5075755;28;20147;-35
2023/03/19 10:16:29;;;;;;;10.70;9.32;;;13.70;99.90;;;;;;5085247;28;20536;-36
2023/03/19 10:19:01;;;;;;;10.90;9.60;;;13.70;99.90;;;;;;5072378;28;20036;-35
2023/03/19 10:21:38;;;;;;;9.85;8.35;;;13.70;99.90;;;;;;5072606;28;20040;-36
2023/03/19 10:24:12;;;;;;;10.50;8.80;;;13.60;99.90;;;;;;5072482;28;20044;-36
2023/03/19 10:26:38;;;;;;;10.45;9.45;;;13.80;99.90;;;;;;5072077;28;20047;-35
2023/03/19 10:29:30;;;;;;;11.00;9.90;;;13.80;99.90;;;;;;5066261;28;20558;-36
2023/03/19 10:32:03;;;;;;;10.13;9.00;;;13.90;99.90;;;;;;5048382;28;20474;-36
2023/03/19 10:34:39;;;;;;;11.65;10.05;;;13.80;99.90;;;;;;5052237;28;20037;-36
2023/03/19 10:37:13;;;;;;;13.13;10.57;;;13.90;99.90;;;;;;5067437;28;20374;-36
2023/03/19 10:39:41;;;;;;;13.52;11.00;;;14.00;99.90;;;;;;5072116;28;20508;-35
2023/03/19 10:42:35;;;;;;;12.20;11.00;;;14.10;99.90;;;;;;5058049;28;20040;-36
2023/03/19 10:45:34;;;;;;;13.63;10.50;;;14.00;99.90;;;;;;5075171;28;20039;-36
2023/03/19 10:48:02;;;;;;;10.82;9.82;;;14.10;99.90;;;;;;5083396;28;20099;-35
2023/03/19 10:50:30;;;;;;;11.63;9.80;;;14.10;99.90;;;;;;5087851;28;20043;-35
2023/03/19 10:53:14;;;;;;;11.90;10.18;;;14.00;99.90;;;;;;5059029;28;20048;-35
2023/03/19 10:56:15;;;;;;;10.70;9.50;;;14.10;99.90;;;;;;5052322;28;20041;-35
2023/03/19 10:59:01;;;;;;;10.65;9.55;;;14.20;99.90;;;;;;5062512;28;20398;-35
2023/03/19 11:01:31;;;;;;;12.02;10.43;;;14.40;99.90;;;;;;5054896;28;20037;-34
2023/03/19 11:03:59;;;;;;;10.90;9.70;;;14.60;99.90;;;;;;5064400;28;20072;-34
2023/03/19 11:06:36;;;;;;;11.07;9.98;;;15.20;99.90;;;;;;5057461;28;20041;-35
2023/03/19 11:09:08;;;;;;;13.15;10.57;;;15.70;99.90;;;;;;5070910;28;20116;-34
2023/03/19 11:11:56;;;;;;;11.20;9.65;;;15.90;99.90;;;;;;5058463;28;20105;-35
2023/03/19 11:14:33;;;;;;;11.20;9.88;;;16.20;99.90;;;;;;5065137;28;20102;-35
2023/03/19 11:17:15;;;;;;;13.60;10.10;;;16.20;99.90;;;;;;5077961;28;20391;-35
2023/03/19 11:19:47;;;;;;;10.43;9.43;;;16.10;99.90;;;;;;5039631;28;20446;-36
2023/03/19 11:22:24;;;;;;;10.93;9.60;;;16.10;99.90;;;;;;5069454;28;20032;-36
2023/03/19 11:24:56;;;;;;;11.35;9.40;;;16.10;99.90;;;;;;5066222;28;20271;-35
2023/03/19 11:27:34;;;;;;;9.82;8.93;;;16.00;99.90;;;;;;5072523;28;20039;-36
2023/03/19 11:30:11;;;;;;;10.95;9.55;;;15.90;99.90;;;;;;5085985;28;20029;-35
2023/03/19 11:32:49;;;;;;;10.35;9.23;;;15.90;99.90;;;;;;5070142;28;20041;-37
2023/03/19 11:35:27;;;;;;;10.45;9.45;;;15.90;99.90;;;;;;5056429;28;20040;-36
2023/03/19 11:37:56;;;;;;;11.48;10.27;;;16.20;99.90;;;;;;5064409;28;20497;-36
2023/03/19 11:40:43;;;;;;;10.63;9.55;;;17.10;99.90;;;;;;5073985;28;20036;-37
2023/03/19 11:43:38;;;;;;;10.70;9.60;;;18.20;99.90;;;;;;5066369;28;20094;-36
2023/03/19 11:46:13;;;;;;;10.32;9.20;;;19.30;99.90;;;;;;5053977;28;20045;-37
2023/03/19 11:49:10;;;;;;;11.05;9.95;;;20.30;99.90;;;;;;5054423;28;20044;-36
2023/03/19 11:51:59;;;;;;;11.13;10.02;;;21.20;99.90;;;;;;5054443;28;20044;-37
2023/03/19 11:55:22;;;;;;;10.05;8.98;;;21.50;99.90;;;;;;5053836;28;20055;-37
2023/03/19 11:58:25;;;;;;;9.63;8.63;;;21.30;99.90;;;;;;5019940;28;20124;-37
2023/03/19 12:00:53;;;;;;;10.05;9.05;;;21.60;99.90;;;;;;5034999;28;20287;-38
2023/03/19 12:03:30;;;;;;;10.48;9.48;;;22.30;99.90;;;;;;5050973;28;20513;-38
2023/03/19 12:06:10;;;;;;;11.13;10.13;;;22.50;99.90;;;;;;5074314;28;20466;-37
2023/03/19 12:08:49;;;;;;;12.00;10.52;;;21.90;99.90;;;;;;5066942;28;20113;-36
2023/03/19 12:11:29;;;;;;;11.98;9.38;;;21.70;99.90;;;;;;5057157;28;20048;-36
2023/03/19 12:14:21;;;;;;;10.90;9.80;;;21.00;99.90;;;;;;5061016;28;20041;-37
2023/03/19 12:17:20;;;;;;;11.10;9.80;;;21.30;99.90;;;;;;5058280;28;20037;-36
2023/03/19 12:20:09;;;;;;;10.02;9.07;;;20.70;99.90;;;;;;5057915;28;20483;-36
2023/03/19 12:22:54;;;;;;;10.20;9.20;;;21.50;99.90;;;;;;5061668;28;20037;-37
2023/03/19 12:25:31;;;;;;;13.18;9.48;;;22.20;99.90;;;;;;5062184;28;20052;-37
2023/03/19 12:28:16;;;;;;;11.40;10.27;;;23.00;99.90;;;;;;5067479;28;20040;-36
2023/03/19 12:30:52;;;;;;;11.65;10.50;;;23.60;97.80;;;;;;5077228;28;20072;-35
2023/03/19 12:33:44;;;;;;;11.00;9.90;;;23.40;99.90;;;;;;5075561;28;20048;-35
2023/03/19 12:36:21;;;;;;;11.50;10.40;;;23.50;99.90;;;;;;5063016;28;20050;-35
2023/03/19 12:39:05;;;;;;;10.73;9.63;;;23.30;99.90;;;;;;5075327;28;20068;-35
2023/03/19 12:41:35;;;;;;;10.65;9.55;;;23.00;99.90;;;;;;5067767;28;20029;-37
2023/03/19 12:44:49;;;;;;;10.57;9.50;;;23.30;99.90;;;;;;5062578;28;20040;-38
2023/03/19 12:47:22;;;;;;;10.70;9.65;;;24.00;59.90;;;;;;5073465;28;20043;-35
2023/03/19 12:49:57;;;;;;;12.45;11.27;;;24.30;99.90;;;;;;5074251;28;20067;-35
2023/03/19 12:52:35;;;;;;;11.23;10.05;;;24.50;99.90;;;;;;5061747;28;20084;-35